sensor_id;sensor_type;location;lat;lon;timestamp;pressure;altitude;pressure_sealevel;temperature;humidity
40245;BME280;25963;42.694;23.600;2022-10-31T00:02:00;95693.63;;;8.43;100.00
40245;BME280;25963;42.694;23.600;2022-10-31T00:04:25;95687.72;;;8.62;100.00
40245;BME280;25963;42.694;23.600;2022-10-31T00:06:50;95687.81;;;8.82;100.00
40245;BME280;25963;42.694;23.600;2022-10-31T00:09:16;95685.41;;;8.81;100.00
40245;BME280;25963;42.694;23.600;2022-10-31T00:11:41;95696.72;;;8.81;100.00
40245;BME280;25963;42.694;23.600;2022-10-31T00:14:07;95703.84;;;8.87;100.00
40245;BME280;25963;42.694;23.600;2022-10-31T00:16:32;95709.50;;;8.84;100.00
40245;BME280;25963;42.694;23.600;2022-10-31T00:18:59;95701.03;;;8.89;100.00
40245;BME280;25963;42.694;23.600;2022-10-31T00:21:27;95701.81;;;8.83;100.00
40245;BME280;25963;42.694;23.600;2022-10-31T00:23:53;95700.78;;;8.84;100.00
40245;BME280;25963;42.694;23.600;2022-10-31T00:26:19;95701.63;;;8.91;100.00
40245;BME280;25963;42.694;23.600;2022-10-31T00:28:45;95697.31;;;8.77;100.00
40245;BME280;25963;42.694;23.600;2022-10-31T00:31:12;95696.47;;;8.76;100.00
40245;BME280;25963;42.694;23.600;2022-10-31T00:33:39;95705.97;;;8.71;100.00
40245;BME280;25963;42.694;23.600;2022-10-31T00:36:06;95698.72;;;8.44;100.00
40245;BME280;25963;42.694;23.600;2022-10-31T00:38:32;95708.75;;;8.62;100.00
40245;BME280;25963;42.694;23.600;2022-10-31T00:40:57;95710.19;;;8.65;100.00
40245;BME280;25963;42.694;23.600;2022-10-31T00:43:23;95709.34;;;8.64;100.00
40245;BME280;25963;42.694;23.600;2022-10-31T00:45:49;95707.66;;;8.50;100.00
40245;BME280;25963;42.694;23.600;2022-10-31T00:48:14;95702.00;;;8.53;100.00
40245;BME280;25963;42.694;23.600;2022-10-31T00:50:42;95703.25;;;8.57;100.00
40245;BME280;25963;42.694;23.600;2022-10-31T00:53:07;95701.38;;;8.51;100.00
40245;BME280;25963;42.694;23.600;2022-10-31T00:55:33;95698.31;;;8.48;100.00
40245;BME280;25963;42.694;23.600;2022-10-31T00:57:59;95702.31;;;8.43;100.00
40245;BME280;25963;42.694;23.600;2022-10-31T01:00:25;95692.25;;;8.47;100.00
40245;BME280;25963;42.694;23.600;2022-10-31T01:02:51;95700.94;;;8.48;100.00
40245;BME280;25963;42.694;23.600;2022-10-31T01:05:16;95709.84;;;8.47;100.00
40245;BME280;25963;42.694;23.600;2022-10-31T01:07:42;95699.41;;;8.60;100.00
40245;BME280;25963;42.694;23.600;2022-10-31T01:10:09;95706.28;;;8.61;100.00
40245;BME280;25963;42.694;23.600;2022-10-31T01:12:44;95711.97;;;8.64;100.00
40245;BME280;25963;42.694;23.600;2022-10-31T01:15:11;95711.00;;;8.65;100.00
40245;BME280;25963;42.694;23.600;2022-10-31T01:17:37;95717.41;;;8.56;100.00
40245;BME280;25963;42.694;23.600;2022-10-31T01:20:07;95713.38;;;8.60;100.00
40245;BME280;25963;42.694;23.600;2022-10-31T01:22:33;95711.41;;;8.69;100.00
40245;BME280;25963;42.694;23.600;2022-10-31T01:24:58;95713.75;;;8.57;100.00
40245;BME280;25963;42.694;23.600;2022-10-31T01:27:24;95719.44;;;8.61;100.00
40245;BME280;25963;42.694;23.600;2022-10-31T01:29:49;95718.59;;;8.54;100.00
40245;BME280;25963;42.694;23.600;2022-10-31T01:32:15;95708.25;;;8.52;100.00
40245;BME280;25963;42.694;23.600;2022-10-31T01:34:40;95702.69;;;8.62;100.00
40245;BME280;25963;42.694;23.600;2022-10-31T01:37:06;95717.53;;;8.76;100.00
40245;BME280;25963;42.694;23.600;2022-10-31T01:39:32;95713.19;;;8.62;100.00
40245;BME280;25963;42.694;23.600;2022-10-31T01:41:58;95707.75;;;8.63;100.00
40245;BME280;25963;42.694;23.600;2022-10-31T01:49:41;95700.91;;;8.69;100.00
40245;BME280;25963;42.694;23.600;2022-10-31T01:52:23;95710.47;;;8.77;100.00
40245;BME280;25963;42.694;23.600;2022-10-31T01:54:58;95715.00;;;8.89;100.00
40245;BME280;25963;42.694;23.600;2022-10-31T01:57:25;95703.03;;;8.87;100.00
40245;BME280;25963;42.694;23.600;2022-10-31T01:59:54;95716.06;;;8.95;100.00
40245;BME280;25963;42.694;23.600;2022-10-31T02:02:20;95718.19;;;8.85;100.00
40245;BME280;25963;42.694;23.600;2022-10-31T02:04:47;95721.13;;;8.68;100.00
40245;BME280;25963;42.694;23.600;2022-10-31T02:07:25;95721.16;;;8.75;100.00
40245;BME280;25963;42.694;23.600;2022-10-31T02:09:53;95729.78;;;8.62;100.00
40245;BME280;25963;42.694;23.600;2022-10-31T02:12:21;95727.41;;;8.67;100.00
40245;BME280;25963;42.694;23.600;2022-10-31T02:14:46;95726.28;;;8.55;100.00
40245;BME280;25963;42.694;23.600;2022-10-31T02:17:13;95725.03;;;8.51;100.00
40245;BME280;25963;42.694;23.600;2022-10-31T02:20:12;95722.72;;;8.63;100.00
40245;BME280;25963;42.694;23.600;2022-10-31T02:23:19;95715.66;;;8.70;100.00
40245;BME280;25963;42.694;23.600;2022-10-31T02:31:43;95731.63;;;8.62;100.00
40245;BME280;25963;42.694;23.600;2022-10-31T02:40:26;95731.09;;;8.52;100.00
40245;BME280;25963;42.694;23.600;2022-10-31T02:43:12;95736.50;;;8.65;100.00
40245;BME280;25963;42.694;23.600;2022-10-31T02:48:18;95720.78;;;8.78;100.00
40245;BME280;25963;42.694;23.600;2022-10-31T02:50:57;95731.81;;;8.88;100.00
40245;BME280;25963;42.694;23.600;2022-10-31T02:53:23;95735.00;;;8.84;100.00
40245;BME280;25963;42.694;23.600;2022-10-31T02:56:22;95742.53;;;8.94;100.00
40245;BME280;25963;42.694;23.600;2022-10-31T03:06:49;95735.66;;;8.93;100.00
40245;BME280;25963;42.694;23.600;2022-10-31T03:09:23;95740.56;;;9.02;100.00
40245;BME280;25963;42.694;23.600;2022-10-31T03:12:10;95733.94;;;9.06;100.00
40245;BME280;25963;42.694;23.600;2022-10-31T03:18:01;95729.03;;;9.03;100.00
40245;BME280;25963;42.694;23.600;2022-10-31T03:20:37;95734.75;;;9.07;100.00
40245;BME280;25963;42.694;23.600;2022-10-31T03:23:07;95737.56;;;9.05;100.00
40245;BME280;25963;42.694;23.600;2022-10-31T03:25:35;95741.00;;;9.06;100.00
40245;BME280;25963;42.694;23.600;2022-10-31T03:28:02;95742.84;;;9.12;100.00
40245;BME280;25963;42.694;23.600;2022-10-31T03:30:30;95745.97;;;9.22;100.00
40245;BME280;25963;42.694;23.600;2022-10-31T03:32:58;95740.53;;;9.30;100.00
40245;BME280;25963;42.694;23.600;2022-10-31T03:35:27;95753.53;;;9.38;100.00
40245;BME280;25963;42.694;23.600;2022-10-31T03:37:54;95751.97;;;9.51;100.00
40245;BME280;25963;42.694;23.600;2022-10-31T03:40:21;95758.50;;;9.62;100.00
40245;BME280;25963;42.694;23.600;2022-10-31T03:42:56;95753.38;;;9.47;100.00
40245;BME280;25963;42.694;23.600;2022-10-31T03:45:25;95748.91;;;9.47;100.00
40245;BME280;25963;42.694;23.600;2022-10-31T03:47:53;95758.88;;;9.52;100.00
40245;BME280;25963;42.694;23.600;2022-10-31T03:50:19;95750.34;;;9.50;100.00
40245;BME280;25963;42.694;23.600;2022-10-31T03:52:57;95755.19;;;9.46;100.00
40245;BME280;25963;42.694;23.600;2022-10-31T03:55:34;95747.53;;;9.51;100.00
40245;BME280;25963;42.694;23.600;2022-10-31T03:58:07;95754.03;;;9.62;100.00
40245;BME280;25963;42.694;23.600;2022-10-31T04:00:35;95758.09;;;9.58;100.00
40245;BME280;25963;42.694;23.600;2022-10-31T04:03:17;95756.41;;;9.50;100.00
40245;BME280;25963;42.694;23.600;2022-10-31T04:05:46;95771.84;;;9.60;100.00
40245;BME280;25963;42.694;23.600;2022-10-31T04:08:21;95755.25;;;9.59;100.00
40245;BME280;25963;42.694;23.600;2022-10-31T04:10:49;95766.25;;;9.70;100.00
40245;BME280;25963;42.694;23.600;2022-10-31T04:13:20;95767.47;;;9.74;100.00
40245;BME280;25963;42.694;23.600;2022-10-31T04:15:50;95762.19;;;9.74;100.00
40245;BME280;25963;42.694;23.600;2022-10-31T04:18:19;95773.50;;;9.61;100.00
40245;BME280;25963;42.694;23.600;2022-10-31T04:20:44;95774.16;;;9.70;100.00
40245;BME280;25963;42.694;23.600;2022-10-31T04:23:24;95781.66;;;9.73;100.00
40245;BME280;25963;42.694;23.600;2022-10-31T04:25:50;95774.16;;;9.70;100.00
40245;BME280;25963;42.694;23.600;2022-10-31T04:28:15;95768.06;;;9.69;100.00
40245;BME280;25963;42.694;23.600;2022-10-31T04:30:41;95782.22;;;9.68;100.00
40245;BME280;25963;42.694;23.600;2022-10-31T04:33:06;95785.25;;;9.65;100.00
40245;BME280;25963;42.694;23.600;2022-10-31T04:35:31;95778.50;;;9.49;100.00
40245;BME280;25963;42.694;23.600;2022-10-31T04:37:57;95775.84;;;9.43;100.00
40245;BME280;25963;42.694;23.600;2022-10-31T04:40:22;95787.56;;;9.40;100.00
40245;BME280;25963;42.694;23.600;2022-10-31T04:42:48;95794.44;;;9.34;100.00
40245;BME280;25963;42.694;23.600;2022-10-31T04:45:13;95784.03;;;9.26;100.00
40245;BME280;25963;42.694;23.600;2022-10-31T04:47:41;95796.75;;;9.16;100.00
40245;BME280;25963;42.694;23.600;2022-10-31T04:50:06;95793.09;;;9.17;100.00
40245;BME280;25963;42.694;23.600;2022-10-31T04:52:39;95796.53;;;9.18;100.00
40245;BME280;25963;42.694;23.600;2022-10-31T04:55:05;95800.22;;;9.23;100.00
40245;BME280;25963;42.694;23.600;2022-10-31T04:57:30;95801.09;;;9.02;100.00
40245;BME280;25963;42.694;23.600;2022-10-31T04:59:56;95796.22;;;8.99;100.00
40245;BME280;25963;42.694;23.600;2022-10-31T05:02:21;95805.84;;;9.13;100.00
40245;BME280;25963;42.694;23.600;2022-10-31T05:04:47;95809.09;;;9.16;100.00
40245;BME280;25963;42.694;23.600;2022-10-31T05:07:14;95795.94;;;9.16;100.00
40245;BME280;25963;42.694;23.600;2022-10-31T05:09:39;95813.63;;;9.00;100.00
40245;BME280;25963;42.694;23.600;2022-10-31T05:12:05;95812.25;;;9.04;100.00
40245;BME280;25963;42.694;23.600;2022-10-31T05:14:30;95811.25;;;9.05;100.00
40245;BME280;25963;42.694;23.600;2022-10-31T05:16:55;95814.63;;;8.99;100.00
40245;BME280;25963;42.694;23.600;2022-10-31T05:19:21;95817.41;;;9.19;100.00
40245;BME280;25963;42.694;23.600;2022-10-31T05:21:47;95812.19;;;9.26;100.00
40245;BME280;25963;42.694;23.600;2022-10-31T05:24:13;95823.19;;;9.36;100.00
40245;BME280;25963;42.694;23.600;2022-10-31T05:26:39;95804.56;;;9.37;100.00
40245;BME280;25963;42.694;23.600;2022-10-31T05:29:04;95816.84;;;9.58;100.00
40245;BME280;25963;42.694;23.600;2022-10-31T05:31:30;95826.72;;;9.91;100.00
40245;BME280;25963;42.694;23.600;2022-10-31T05:33:55;95827.22;;;10.15;100.00
40245;BME280;25963;42.694;23.600;2022-10-31T05:36:22;95830.06;;;10.20;100.00
40245;BME280;25963;42.694;23.600;2022-10-31T05:38:48;95825.19;;;10.17;100.00
40245;BME280;25963;42.694;23.600;2022-10-31T05:41:13;95830.28;;;10.18;100.00
40245;BME280;25963;42.694;23.600;2022-10-31T05:43:39;95830.91;;;10.20;100.00
40245;BME280;25963;42.694;23.600;2022-10-31T05:46:04;95825.66;;;10.27;100.00
40245;BME280;25963;42.694;23.600;2022-10-31T05:48:30;95834.22;;;10.42;100.00
40245;BME280;25963;42.694;23.600;2022-10-31T05:50:55;95841.38;;;10.75;100.00
40245;BME280;25963;42.694;23.600;2022-10-31T05:53:20;95834.69;;;11.19;100.00
40245;BME280;25963;42.694;23.600;2022-10-31T05:55:46;95832.94;;;11.78;99.50
40245;BME280;25963;42.694;23.600;2022-10-31T05:58:12;95851.88;;;11.88;95.33
40245;BME280;25963;42.694;23.600;2022-10-31T06:00:37;95848.19;;;11.82;95.83
40245;BME280;25963;42.694;23.600;2022-10-31T06:03:06;95849.03;;;11.70;95.11
40245;BME280;25963;42.694;23.600;2022-10-31T06:05:32;95854.94;;;11.65;96.46
40245;BME280;25963;42.694;23.600;2022-10-31T06:07:57;95848.22;;;11.69;97.12
40245;BME280;25963;42.694;23.600;2022-10-31T06:10:24;95851.41;;;11.84;98.17
40245;BME280;25963;42.694;23.600;2022-10-31T06:12:50;95866.38;;;12.17;95.17
40245;BME280;25963;42.694;23.600;2022-10-31T06:15:16;95864.13;;;12.27;92.29
40245;BME280;25963;42.694;23.600;2022-10-31T06:17:41;95865.88;;;12.40;91.07
40245;BME280;25963;42.694;23.600;2022-10-31T06:20:08;95866.16;;;12.64;92.11
40245;BME280;25963;42.694;23.600;2022-10-31T06:22:33;95871.53;;;12.82;90.50
40245;BME280;25963;42.694;23.600;2022-10-31T06:24:59;95874.16;;;12.89;89.70
40245;BME280;25963;42.694;23.600;2022-10-31T06:27:25;95879.44;;;12.89;88.97
40245;BME280;25963;42.694;23.600;2022-10-31T06:29:51;95887.19;;;12.90;89.83
40245;BME280;25963;42.694;23.600;2022-10-31T06:32:18;95884.47;;;12.97;88.35
40245;BME280;25963;42.694;23.600;2022-10-31T06:34:43;95888.13;;;13.02;87.07
40245;BME280;25963;42.694;23.600;2022-10-31T06:37:11;95881.97;;;13.09;88.06
40245;BME280;25963;42.694;23.600;2022-10-31T06:39:38;95880.22;;;12.96;86.54
40245;BME280;25963;42.694;23.600;2022-10-31T06:42:04;95886.09;;;12.98;88.06
40245;BME280;25963;42.694;23.600;2022-10-31T06:44:30;95880.66;;;12.86;85.56
40245;BME280;25963;42.694;23.600;2022-10-31T06:46:55;95889.72;;;13.10;87.87
40245;BME280;25963;42.694;23.600;2022-10-31T06:49:22;95887.97;;;13.22;85.69
40245;BME280;25963;42.694;23.600;2022-10-31T06:51:48;95883.13;;;13.19;86.10
40245;BME280;25963;42.694;23.600;2022-10-31T06:54:14;95881.41;;;13.32;84.27
40245;BME280;25963;42.694;23.600;2022-10-31T06:56:40;95896.09;;;13.28;83.09
40245;BME280;25963;42.694;23.600;2022-10-31T06:59:05;95882.91;;;13.46;84.20
40245;BME280;25963;42.694;23.600;2022-10-31T07:01:31;95894.53;;;13.70;81.79
40245;BME280;25963;42.694;23.600;2022-10-31T07:03:56;95886.53;;;13.95;81.20
40245;BME280;25963;42.694;23.600;2022-10-31T07:06:22;95882.53;;;13.86;78.36
40245;BME280;25963;42.694;23.600;2022-10-31T07:08:48;95881.06;;;13.90;78.59
40245;BME280;25963;42.694;23.600;2022-10-31T07:11:14;95874.66;;;13.98;77.05
40245;BME280;25963;42.694;23.600;2022-10-31T07:13:39;95878.78;;;14.12;79.77
40245;BME280;25963;42.694;23.600;2022-10-31T07:16:05;95869.94;;;14.18;80.62
40245;BME280;25963;42.694;23.600;2022-10-31T07:18:32;95867.34;;;14.30;74.46
40245;BME280;25963;42.694;23.600;2022-10-31T07:20:57;95867.47;;;14.53;77.18
40245;BME280;25963;42.694;23.600;2022-10-31T07:23:23;95864.66;;;14.67;79.39
40245;BME280;25963;42.694;23.600;2022-10-31T07:25:48;95870.13;;;14.83;74.09
40245;BME280;25963;42.694;23.600;2022-10-31T07:28:19;95865.28;;;14.92;72.96
40245;BME280;25963;42.694;23.600;2022-10-31T07:30:53;95874.00;;;14.99;73.84
40245;BME280;25963;42.694;23.600;2022-10-31T07:33:19;95871.38;;;15.23;72.06
40245;BME280;25963;42.694;23.600;2022-10-31T07:35:45;95868.97;;;15.33;71.91
40245;BME280;25963;42.694;23.600;2022-10-31T07:38:12;95872.41;;;15.22;69.69
40245;BME280;25963;42.694;23.600;2022-10-31T07:40:40;95875.09;;;15.45;72.81
40245;BME280;25963;42.694;23.600;2022-10-31T07:43:07;95872.31;;;15.64;72.14
40245;BME280;25963;42.694;23.600;2022-10-31T07:45:32;95867.59;;;15.89;71.36
40245;BME280;25963;42.694;23.600;2022-10-31T07:47:58;95864.69;;;16.03;67.55
40245;BME280;25963;42.694;23.600;2022-10-31T07:50:29;95862.28;;;16.01;67.34
40245;BME280;25963;42.694;23.600;2022-10-31T07:53:05;95867.19;;;16.21;72.33
40245;BME280;25963;42.694;23.600;2022-10-31T07:55:31;95874.56;;;16.42;68.24
40245;BME280;25963;42.694;23.600;2022-10-31T08:00:22;95860.59;;;16.64;70.56
40245;BME280;25963;42.694;23.600;2022-10-31T08:02:48;95851.47;;;16.88;69.24
40245;BME280;25963;42.694;23.600;2022-10-31T08:05:13;95860.69;;;16.98;63.34
40245;BME280;25963;42.694;23.600;2022-10-31T08:07:38;95863.13;;;17.16;63.82
40245;BME280;25963;42.694;23.600;2022-10-31T08:10:04;95860.53;;;17.21;64.03
40245;BME280;25963;42.694;23.600;2022-10-31T08:12:30;95873.31;;;17.36;62.11
40245;BME280;25963;42.694;23.600;2022-10-31T08:14:56;95865.06;;;17.38;62.48
40245;BME280;25963;42.694;23.600;2022-10-31T08:17:21;95848.75;;;17.51;63.62
40245;BME280;25963;42.694;23.600;2022-10-31T08:19:50;95850.25;;;17.64;60.61
40245;BME280;25963;42.694;23.600;2022-10-31T08:22:15;95850.50;;;17.79;62.06
40245;BME280;25963;42.694;23.600;2022-10-31T08:24:40;95853.56;;;17.88;61.82
40245;BME280;25963;42.694;23.600;2022-10-31T08:27:06;95848.72;;;18.07;63.55
40245;BME280;25963;42.694;23.600;2022-10-31T08:29:32;95838.13;;;18.12;58.75
40245;BME280;25963;42.694;23.600;2022-10-31T08:31:57;95847.63;;;18.24;62.39
40245;BME280;25963;42.694;23.600;2022-10-31T08:34:23;95843.09;;;18.25;61.30
40245;BME280;25963;42.694;23.600;2022-10-31T08:36:49;95852.59;;;18.38;61.16
40245;BME280;25963;42.694;23.600;2022-10-31T08:39:14;95843.69;;;18.54;60.64
40245;BME280;25963;42.694;23.600;2022-10-31T08:41:40;95857.88;;;18.77;61.08
40245;BME280;25963;42.694;23.600;2022-10-31T08:44:05;95851.28;;;18.89;56.63
40245;BME280;25963;42.694;23.600;2022-10-31T08:46:31;95849.41;;;18.90;58.30
40245;BME280;25963;42.694;23.600;2022-10-31T08:48:57;95851.59;;;18.93;59.47
40245;BME280;25963;42.694;23.600;2022-10-31T08:51:22;95844.53;;;19.09;58.67
40245;BME280;25963;42.694;23.600;2022-10-31T08:53:49;95844.31;;;19.15;58.52
40245;BME280;25963;42.694;23.600;2022-10-31T08:56:14;95840.63;;;19.22;56.00
40245;BME280;25963;42.694;23.600;2022-10-31T08:58:42;95842.28;;;19.28;54.91
40245;BME280;25963;42.694;23.600;2022-10-31T09:01:08;95829.00;;;19.43;56.79
40245;BME280;25963;42.694;23.600;2022-10-31T09:03:33;95833.44;;;19.27;56.30
40245;BME280;25963;42.694;23.600;2022-10-31T09:06:01;95835.16;;;19.38;60.54
40245;BME280;25963;42.694;23.600;2022-10-31T09:08:33;95838.28;;;18.98;55.10
40245;BME280;25963;42.694;23.600;2022-10-31T09:10:59;95836.38;;;19.26;59.24
40245;BME280;25963;42.694;23.600;2022-10-31T09:13:25;95827.69;;;19.46;57.61
40245;BME280;25963;42.694;23.600;2022-10-31T09:15:51;95834.75;;;19.62;55.03
40245;BME280;25963;42.694;23.600;2022-10-31T09:18:19;95832.28;;;19.88;57.61
40245;BME280;25963;42.694;23.600;2022-10-31T09:20:46;95832.34;;;20.03;53.98
40245;BME280;25963;42.694;23.600;2022-10-31T09:23:13;95830.94;;;19.90;54.36
40245;BME280;25963;42.694;23.600;2022-10-31T09:25:40;95831.59;;;20.08;56.23
40245;BME280;25963;42.694;23.600;2022-10-31T09:28:07;95840.06;;;19.94;53.33
40245;BME280;25963;42.694;23.600;2022-10-31T09:30:34;95829.94;;;20.01;55.00
40245;BME280;25963;42.694;23.600;2022-10-31T09:33:02;95835.00;;;19.98;53.83
40245;BME280;25963;42.694;23.600;2022-10-31T09:35:28;95824.94;;;20.20;54.89
40245;BME280;25963;42.694;23.600;2022-10-31T09:38:08;95826.50;;;20.11;52.30
40245;BME280;25963;42.694;23.600;2022-10-31T09:40:39;95826.00;;;20.24;54.87
40245;BME280;25963;42.694;23.600;2022-10-31T09:43:41;95826.09;;;20.45;52.62
40245;BME280;25963;42.694;23.600;2022-10-31T09:46:27;95821.69;;;20.18;52.07
40245;BME280;25963;42.694;23.600;2022-10-31T09:52:35;95821.13;;;21.00;55.34
40245;BME280;25963;42.694;23.600;2022-10-31T09:55:15;95814.72;;;21.16;51.37
40245;BME280;25963;42.694;23.600;2022-10-31T09:57:42;95807.19;;;21.28;51.07
40245;BME280;25963;42.694;23.600;2022-10-31T10:00:18;95815.25;;;21.33;49.54
40245;BME280;25963;42.694;23.600;2022-10-31T10:02:51;95791.38;;;21.52;50.62
40245;BME280;25963;42.694;23.600;2022-10-31T10:05:22;95786.53;;;21.49;49.87
40245;BME280;25963;42.694;23.600;2022-10-31T10:11:02;95781.97;;;21.60;48.63
40245;BME280;25963;42.694;23.600;2022-10-31T10:22:09;95788.50;;;22.19;47.21
40245;BME280;25963;42.694;23.600;2022-10-31T10:24:58;95780.69;;;22.27;45.54
40245;BME280;25963;42.694;23.600;2022-10-31T10:30:41;95766.69;;;22.36;46.03
40245;BME280;25963;42.694;23.600;2022-10-31T10:33:31;95765.16;;;22.64;47.29
40245;BME280;25963;42.694;23.600;2022-10-31T10:36:05;95759.44;;;22.75;43.93
40245;BME280;25963;42.694;23.600;2022-10-31T10:38:36;95755.47;;;23.07;43.89
40245;BME280;25963;42.694;23.600;2022-10-31T10:41:08;95749.88;;;22.93;42.08
40245;BME280;25963;42.694;23.600;2022-10-31T10:43:36;95740.94;;;23.03;44.04
40245;BME280;25963;42.694;23.600;2022-10-31T10:49:00;95735.88;;;23.31;43.21
40245;BME280;25963;42.694;23.600;2022-10-31T10:54:44;95739.50;;;23.74;41.59
40245;BME280;25963;42.694;23.600;2022-10-31T10:59:48;95730.94;;;23.91;41.62
40245;BME280;25963;42.694;23.600;2022-10-31T11:02:20;95733.16;;;23.84;40.59
40245;BME280;25963;42.694;23.600;2022-10-31T11:04:50;95726.81;;;23.99;41.26
40245;BME280;25963;42.694;23.600;2022-10-31T11:07:16;95725.75;;;24.19;42.48
40245;BME280;25963;42.694;23.600;2022-10-31T11:09:42;95720.78;;;24.26;41.44
40245;BME280;25963;42.694;23.600;2022-10-31T11:12:43;95717.81;;;24.27;39.62
40245;BME280;25963;42.694;23.600;2022-10-31T11:15:20;95715.63;;;24.29;40.48
40245;BME280;25963;42.694;23.600;2022-10-31T11:17:51;95712.84;;;24.34;42.06
40245;BME280;25963;42.694;23.600;2022-10-31T11:22:48;95705.22;;;24.42;40.76
40245;BME280;25963;42.694;23.600;2022-10-31T11:25:24;95706.09;;;24.37;40.62
40245;BME280;25963;42.694;23.600;2022-10-31T11:28:04;95696.00;;;24.48;40.48
40245;BME280;25963;42.694;23.600;2022-10-31T11:30:36;95708.78;;;24.56;39.42
40245;BME280;25963;42.694;23.600;2022-10-31T11:35:49;95697.72;;;24.38;39.15
40245;BME280;25963;42.694;23.600;2022-10-31T11:38:21;95685.56;;;24.41;39.05
40245;BME280;25963;42.694;23.600;2022-10-31T11:41:13;95684.66;;;24.65;40.64
40245;BME280;25963;42.694;23.600;2022-10-31T11:43:54;95680.97;;;24.60;38.59
40245;BME280;25963;42.694;23.600;2022-10-31T11:46:49;95678.47;;;24.64;40.90
40245;BME280;25963;42.694;23.600;2022-10-31T11:51:48;95674.44;;;24.80;40.50
40245;BME280;25963;42.694;23.600;2022-10-31T11:54:23;95674.56;;;24.89;39.43
40245;BME280;25963;42.694;23.600;2022-10-31T11:56:50;95659.78;;;24.87;40.18
40245;BME280;25963;42.694;23.600;2022-10-31T11:59:28;95666.47;;;24.89;39.88
40245;BME280;25963;42.694;23.600;2022-10-31T12:01:58;95663.50;;;25.04;38.87
40245;BME280;25963;42.694;23.600;2022-10-31T12:04:33;95659.00;;;25.00;38.00
40245;BME280;25963;42.694;23.600;2022-10-31T12:07:00;95661.69;;;25.19;38.95
40245;BME280;25963;42.694;23.600;2022-10-31T12:09:28;95663.25;;;25.20;39.11
40245;BME280;25963;42.694;23.600;2022-10-31T12:17:38;95662.25;;;25.16;38.45
40245;BME280;25963;42.694;23.600;2022-10-31T12:28:12;95668.16;;;25.45;38.56
40245;BME280;25963;42.694;23.600;2022-10-31T12:57:42;95663.75;;;26.18;35.00
40245;BME280;25963;42.694;23.600;2022-10-31T13:00:18;95659.78;;;26.38;35.21
40245;BME280;25963;42.694;23.600;2022-10-31T13:03:14;95662.78;;;26.51;34.39
40245;BME280;25963;42.694;23.600;2022-10-31T13:05:45;95660.94;;;26.60;34.57
40245;BME280;25963;42.694;23.600;2022-10-31T13:08:37;95659.09;;;26.69;35.44
40245;BME280;25963;42.694;23.600;2022-10-31T13:11:14;95661.41;;;26.84;34.69
40245;BME280;25963;42.694;23.600;2022-10-31T13:16:46;95669.16;;;27.00;33.46
40245;BME280;25963;42.694;23.600;2022-10-31T13:19:31;95651.94;;;26.96;33.77
40245;BME280;25963;42.694;23.600;2022-10-31T13:22:18;95671.69;;;25.87;32.63
40245;BME280;25963;42.694;23.600;2022-10-31T13:27:22;95664.69;;;25.59;32.50
40245;BME280;25963;42.694;23.600;2022-10-31T13:30:01;95659.88;;;25.56;32.49
40245;BME280;25963;42.694;23.600;2022-10-31T13:32:41;95661.06;;;25.22;32.79
40245;BME280;25963;42.694;23.600;2022-10-31T13:35:31;95674.38;;;24.99;32.94
40245;BME280;25963;42.694;23.600;2022-10-31T13:41:02;95661.41;;;25.01;33.31
40245;BME280;25963;42.694;23.600;2022-10-31T13:46:23;95667.16;;;24.81;33.88
40245;BME280;25963;42.694;23.600;2022-10-31T13:48:50;95668.00;;;24.76;34.21
40245;BME280;25963;42.694;23.600;2022-10-31T13:51:25;95661.31;;;24.74;34.29
40245;BME280;25963;42.694;23.600;2022-10-31T13:53:59;95671.28;;;24.59;33.78
40245;BME280;25963;42.694;23.600;2022-10-31T13:56:33;95672.88;;;24.60;34.48
40245;BME280;25963;42.694;23.600;2022-10-31T14:01:27;95659.84;;;24.49;34.60
40245;BME280;25963;42.694;23.600;2022-10-31T14:06:23;95672.34;;;24.21;35.26
40245;BME280;25963;42.694;23.600;2022-10-31T14:08:51;95671.78;;;24.24;35.37
40245;BME280;25963;42.694;23.600;2022-10-31T14:11:24;95677.06;;;24.29;35.63
40245;BME280;25963;42.694;23.600;2022-10-31T14:13:55;95679.88;;;24.24;35.28
40245;BME280;25963;42.694;23.600;2022-10-31T14:16:27;95683.63;;;24.04;36.07
40245;BME280;25963;42.694;23.600;2022-10-31T14:19:05;95681.34;;;23.73;35.75
40245;BME280;25963;42.694;23.600;2022-10-31T14:21:38;95681.78;;;23.80;36.75
40245;BME280;25963;42.694;23.600;2022-10-31T14:27:04;95676.09;;;23.58;36.30
40245;BME280;25963;42.694;23.600;2022-10-31T14:29:32;95678.88;;;23.47;36.63
40245;BME280;25963;42.694;23.600;2022-10-31T14:32:05;95678.66;;;23.44;36.83
40245;BME280;25963;42.694;23.600;2022-10-31T14:45:49;95668.94;;;22.90;38.18
40245;BME280;25963;42.694;23.600;2022-10-31T14:48:47;95669.66;;;22.71;38.50
40245;BME280;25963;42.694;23.600;2022-10-31T14:53:50;95673.63;;;22.45;38.90
40245;BME280;25963;42.694;23.600;2022-10-31T14:56:30;95675.78;;;22.43;39.49
40245;BME280;25963;42.694;23.600;2022-10-31T14:59:04;95674.22;;;22.31;39.88
40245;BME280;25963;42.694;23.600;2022-10-31T15:01:35;95676.53;;;22.04;39.67
40245;BME280;25963;42.694;23.600;2022-10-31T15:04:15;95677.13;;;21.96;40.40
40245;BME280;25963;42.694;23.600;2022-10-31T15:06:44;95671.53;;;21.87;40.46
40245;BME280;25963;42.694;23.600;2022-10-31T15:09:32;95681.78;;;21.75;40.99
40245;BME280;25963;42.694;23.600;2022-10-31T15:12:24;95674.91;;;21.43;41.20
40245;BME280;25963;42.694;23.600;2022-10-31T15:14:52;95675.19;;;21.31;41.56
40245;BME280;25963;42.694;23.600;2022-10-31T15:17:18;95685.38;;;21.34;41.67
40245;BME280;25963;42.694;23.600;2022-10-31T15:19:44;95690.19;;;21.32;42.08
40245;BME280;25963;42.694;23.600;2022-10-31T15:22:14;95695.09;;;21.10;42.18
40245;BME280;25963;42.694;23.600;2022-10-31T15:24:42;95695.63;;;21.07;42.55
40245;BME280;25963;42.694;23.600;2022-10-31T15:27:17;95689.22;;;20.77;42.91